Time;durP1;ratioP1;P1;durP2;ratioP2;P2;SDS_P1;SDS_P2;PMS_P1;PMS_P2;Temp;Humidity;BMP_temperature;BMP_pressure;BME280_temperature;BME280_humidity;BME280_pressure;Samples;Min_cycle;Max_cycle;Signal;HPM_P1;HPM_P2
2022/09/09 00:02:01;;;;;;;2.60;1.47;;;18.20;99.90;;;;;;5016308;28;20418;-70
2022/09/09 00:04:29;;;;;;;2.27;1.70;;;18.10;99.90;;;;;;5016131;28;20399;-69
2022/09/09 00:07:31;;;;;;;3.17;1.50;;;18.10;99.90;;;;;;5016481;28;20407;-69
2022/09/09 00:10:16;;;;;;;5.10;1.60;;;18.10;99.90;;;;;;5015304;28;20829;-70
2022/09/09 00:13:18;;;;;;;2.17;0.90;;;18.00;99.90;;;;;;5015256;28;20400;-69
2022/09/09 00:15:46;;;;;;;4.00;1.37;;;18.00;99.90;;;;;;4966356;28;20841;-69
2022/09/09 00:19:01;;;;;;;4.20;1.10;;;18.10;99.90;;;;;;4976458;28;20409;-69
2022/09/09 00:21:33;;;;;;;2.60;1.17;;;18.20;99.90;;;;;;4954974;29;20468;-69
2022/09/09 00:24:00;;;;;;;2.57;1.10;;;18.30;99.90;;;;;;4954909;29;20488;-69
2022/09/09 00:26:42;;;;;;;2.70;1.20;;;18.20;99.90;;;;;;4966099;28;20421;-69
2022/09/09 00:29:08;;;;;;;5.20;1.93;;;18.30;99.90;;;;;;4975662;28;20396;-70
2022/09/09 00:31:34;;;;;;;3.53;1.53;;;18.30;99.90;;;;;;4991014;28;20495;-69
2022/09/09 00:34:11;;;;;;;4.70;1.50;;;18.30;99.90;;;;;;4976215;28;20941;-69
2022/09/09 00:36:38;;;;;;;3.80;1.10;;;18.20;99.90;;;;;;4976095;28;20968;-69
2022/09/09 00:39:04;;;;;;;1.93;1.30;;;18.30;99.90;;;;;;4974798;28;20895;-69
2022/09/09 00:41:56;;;;;;;2.77;1.57;;;18.30;99.90;;;;;;4975620;28;20432;-69
2022/09/09 00:44:46;;;;;;;8.50;1.53;;;18.40;99.90;;;;;;5001377;28;20403;-69
2022/09/09 00:47:30;;;;;;;3.23;1.33;;;18.50;99.90;;;;;;5014419;28;20984;-69
2022/09/09 00:50:15;;;;;;;2.47;1.30;;;18.50;99.90;;;;;;5015025;28;21040;-69
2022/09/09 00:53:10;;;;;;;2.90;1.50;;;18.40;99.90;;;;;;5014816;28;20417;-69
2022/09/09 00:56:21;;;;;;;1.47;1.00;;;18.40;99.90;;;;;;5000854;28;20443;-69
2022/09/09 00:59:02;;;;;;;2.63;1.33;;;18.60;99.90;;;;;;4994686;28;20479;-69
2022/09/09 01:01:28;;;;;;;4.47;1.50;;;18.80;99.90;;;;;;4994785;28;20461;-68
2022/09/09 01:03:59;;;;;;;1.50;1.07;;;18.90;99.90;;;;;;4994732;28;20424;-69
2022/09/09 01:06:36;;;;;;;3.43;1.60;;;18.90;99.90;;;;;;4994731;28;20565;-69
2022/09/09 01:09:26;;;;;;;2.30;0.90;;;19.00;99.90;;;;;;4995023;28;20934;-68
2022/09/09 01:12:01;;;;;;;1.83;1.00;;;19.00;99.90;;;;;;4995134;28;20455;-69
2022/09/09 01:14:36;;;;;;;3.53;1.10;;;19.10;99.90;;;;;;5005617;28;20417;-68
2022/09/09 01:17:25;;;;;;;2.70;1.17;;;18.90;99.90;;;;;;5014568;28;20383;-70
2022/09/09 01:20:10;;;;;;;3.77;1.23;;;18.90;99.90;;;;;;5013766;28;20987;-69
2022/09/09 01:22:52;;;;;;;3.07;1.50;;;18.80;99.90;;;;;;5014723;28;20397;-69
2022/09/09 01:25:47;;;;;;;1.50;1.20;;;18.70;99.90;;;;;;5014312;28;20394;-69
2022/09/09 01:28:18;;;;;;;3.07;1.30;;;18.80;99.90;;;;;;5013634;28;20391;-69
2022/09/09 01:30:44;;;;;;;2.67;1.50;;;18.80;99.90;;;;;;5013888;28;20485;-69
2022/09/09 01:33:14;;;;;;;1.50;1.00;;;18.90;99.90;;;;;;5013639;28;20903;-69
2022/09/09 01:35:50;;;;;;;2.40;1.07;;;18.90;99.90;;;;;;5013486;28;20191;-70
2022/09/09 01:38:17;;;;;;;3.43;1.03;;;18.90;99.90;;;;;;5013681;28;20386;-69
2022/09/09 01:40:46;;;;;;;2.10;1.07;;;19.00;99.90;;;;;;5013562;28;20514;-69
2022/09/09 01:43:12;;;;;;;2.23;1.20;;;19.00;99.90;;;;;;5013269;28;20449;-69
2022/09/09 01:45:40;;;;;;;2.00;1.20;;;18.90;99.90;;;;;;5013426;28;20407;-69
2022/09/09 01:48:06;;;;;;;2.40;1.10;;;18.90;99.90;;;;;;5013612;28;20456;-69
2022/09/09 01:50:32;;;;;;;4.40;1.47;;;18.90;99.90;;;;;;5013384;28;20430;-70
2022/09/09 01:52:59;;;;;;;1.20;0.93;;;18.90;99.90;;;;;;5013616;28;20171;-71
2022/09/09 01:55:44;;;;;;;3.07;1.47;;;18.80;99.90;;;;;;5013353;28;20302;-70
2022/09/09 01:58:12;;;;;;;2.77;1.40;;;18.80;99.90;;;;;;5012786;28;20399;-69
2022/09/09 02:00:50;;;;;;;3.47;1.30;;;18.70;99.90;;;;;;5012437;28;20427;-70
2022/09/09 02:03:28;;;;;;;2.60;1.27;;;18.80;99.90;;;;;;5013492;28;20388;-69
2022/09/09 02:06:02;;;;;;;4.17;1.43;;;18.70;99.90;;;;;;5013240;28;20506;-70
2022/09/09 02:08:49;;;;;;;1.70;1.20;;;18.60;99.90;;;;;;5013102;28;20865;-70
2022/09/09 02:11:21;;;;;;;1.93;1.07;;;18.50;99.90;;;;;;5013364;28;20446;-70
2022/09/09 02:13:50;;;;;;;2.90;1.50;;;18.40;99.90;;;;;;5011991;28;20423;-70
2022/09/09 02:16:32;;;;;;;1.63;1.07;;;18.40;99.90;;;;;;5013168;28;20455;-70
2022/09/09 02:19:07;;;;;;;6.13;1.90;;;18.40;99.90;;;;;;5013608;28;20743;-69
2022/09/09 02:21:37;;;;;;;4.10;1.30;;;18.40;99.90;;;;;;5013130;28;20398;-70
2022/09/09 02:24:07;;;;;;;2.13;1.10;;;18.40;99.90;;;;;;5013173;28;20445;-69
2022/09/09 02:26:34;;;;;;;2.07;0.90;;;18.50;99.90;;;;;;5013324;28;20402;-69
2022/09/09 02:29:05;;;;;;;3.90;1.30;;;18.50;99.90;;;;;;5012659;28;20928;-69
2022/09/09 02:31:35;;;;;;;1.87;0.90;;;18.50;99.90;;;;;;5013104;28;20375;-70
2022/09/09 02:34:03;;;;;;;2.13;1.20;;;18.40;99.90;;;;;;5013045;28;20427;-70
2022/09/09 02:36:33;;;;;;;2.70;1.20;;;18.40;99.90;;;;;;5013004;28;20447;-69
2022/09/09 02:38:59;;;;;;;2.10;1.13;;;18.40;99.90;;;;;;5013223;28;20787;-69
2022/09/09 02:41:33;;;;;;;1.97;1.00;;;18.30;99.90;;;;;;5012957;28;20480;-69
2022/09/09 02:43:59;;;;;;;1.60;1.13;;;18.30;99.90;;;;;;5012774;28;20751;-70
2022/09/09 02:46:39;;;;;;;2.07;1.23;;;18.30;99.90;;;;;;5001520;28;20412;-69
2022/09/09 02:49:40;;;;;;;2.27;1.20;;;18.30;99.90;;;;;;4993562;28;20161;-69
2022/09/09 02:52:10;;;;;;;1.93;1.10;;;18.20;99.90;;;;;;4980075;28;20419;-69
2022/09/09 02:54:38;;;;;;;2.17;1.10;;;18.10;99.90;;;;;;4993137;28;20411;-69
2022/09/09 02:57:15;;;;;;;1.97;0.90;;;18.00;99.90;;;;;;5001562;28;20443;-71
2022/09/09 02:59:43;;;;;;;3.43;1.03;;;18.00;99.90;;;;;;5012894;28;20773;-70
2022/09/09 03:02:10;;;;;;;2.73;1.20;;;18.00;99.90;;;;;;5011599;28;20419;-70
2022/09/09 03:04:36;;;;;;;1.77;0.90;;;17.90;99.90;;;;;;5012975;28;20835;-69
2022/09/09 03:07:03;;;;;;;3.07;1.20;;;17.80;99.90;;;;;;5011174;28;20459;-69
2022/09/09 03:12:04;;;;;;;2.17;1.27;;;17.60;99.90;;;;;;5053560;22;20497;-69
2022/09/09 03:14:30;;;;;;;4.70;1.20;;;17.60;99.90;;;;;;5035819;28;20424;-69
2022/09/09 03:16:57;;;;;;;5.53;1.30;;;17.50;99.90;;;;;;5036819;28;20445;-69
2022/09/09 03:19:23;;;;;;;1.40;1.20;;;17.60;99.90;;;;;;5036846;28;20415;-69
2022/09/09 03:21:49;;;;;;;2.70;1.23;;;17.60;99.90;;;;;;5036496;28;21015;-69
2022/09/09 03:24:15;;;;;;;2.37;1.00;;;17.60;99.90;;;;;;5036963;28;20627;-69
2022/09/09 03:26:44;;;;;;;1.43;0.83;;;17.70;99.90;;;;;;5036493;28;20764;-69
2022/09/09 03:29:12;;;;;;;1.87;0.83;;;17.80;99.90;;;;;;5036901;28;20405;-70
2022/09/09 03:31:38;;;;;;;2.33;1.03;;;17.80;99.90;;;;;;5005261;28;20784;-69
2022/09/09 03:34:04;;;;;;;1.07;0.80;;;17.90;99.90;;;;;;5017039;28;20413;-69
2022/09/09 03:36:30;;;;;;;2.13;0.83;;;17.80;99.90;;;;;;5016323;28;20434;-69
2022/09/09 03:38:55;;;;;;;2.17;0.97;;;17.70;99.90;;;;;;5016966;28;20171;-69
2022/09/09 03:41:24;;;;;;;2.10;0.83;;;17.70;99.90;;;;;;5023830;28;20524;-69
2022/09/09 03:43:51;;;;;;;1.47;0.70;;;17.60;99.90;;;;;;5036345;28;20159;-69
2022/09/09 03:46:17;;;;;;;2.10;0.80;;;17.70;99.90;;;;;;5036309;28;20774;-69
2022/09/09 03:48:43;;;;;;;1.20;0.83;;;17.80;99.90;;;;;;5036193;28;20448;-69
2022/09/09 03:51:10;;;;;;;2.27;1.23;;;17.80;99.90;;;;;;5036076;28;20460;-69
2022/09/09 03:53:37;;;;;;;2.50;1.00;;;17.90;99.90;;;;;;5036116;28;20406;-69
2022/09/09 03:56:05;;;;;;;2.20;0.77;;;17.90;99.90;;;;;;5035756;28;20476;-69
2022/09/09 03:58:30;;;;;;;1.70;0.87;;;18.10;99.90;;;;;;5034505;28;20418;-68
2022/09/09 04:00:58;;;;;;;1.33;0.80;;;18.10;99.90;;;;;;5035491;28;20969;-68
2022/09/09 04:03:24;;;;;;;2.27;0.80;;;18.10;99.90;;;;;;5036010;28;20195;-68
2022/09/09 04:05:54;;;;;;;4.60;1.20;;;18.10;99.90;;;;;;5036250;28;20434;-68
2022/09/09 04:08:21;;;;;;;2.97;1.20;;;18.10;99.90;;;;;;5035725;28;20441;-68
2022/09/09 04:10:49;;;;;;;3.10;1.27;;;18.00;99.90;;;;;;5035690;28;20954;-68
2022/09/09 04:13:17;;;;;;;2.57;0.93;;;18.10;99.90;;;;;;5035654;28;20402;-69
2022/09/09 04:15:44;;;;;;;4.50;1.10;;;18.10;99.90;;;;;;5034562;28;20955;-69
2022/09/09 04:18:11;;;;;;;2.27;1.00;;;17.90;99.90;;;;;;5035595;28;20453;-69
2022/09/09 04:20:37;;;;;;;4.37;1.40;;;17.80;99.90;;;;;;5035537;28;20528;-69
2022/09/09 04:23:03;;;;;;;1.70;1.30;;;17.60;99.90;;;;;;5035349;28;20394;-69
2022/09/09 04:25:29;;;;;;;2.70;1.33;;;17.50;99.90;;;;;;5034676;28;21021;-68
2022/09/09 04:27:56;;;;;;;2.93;1.13;;;17.50;99.90;;;;;;5035475;28;20206;-69
2022/09/09 04:30:21;;;;;;;3.53;1.40;;;17.50;99.90;;;;;;5035154;28;20203;-69
2022/09/09 04:32:47;;;;;;;2.23;1.43;;;17.50;99.90;;;;;;5035467;28;20410;-69
2022/09/09 04:35:13;;;;;;;2.33;1.10;;;17.50;99.90;;;;;;5035489;28;20226;-69
2022/09/09 04:37:39;;;;;;;1.87;1.30;;;17.60;99.90;;;;;;5036470;28;20167;-70
2022/09/09 04:40:05;;;;;;;1.50;1.23;;;17.60;99.90;;;;;;5027355;28;20190;-69
2022/09/09 04:42:35;;;;;;;2.33;1.00;;;17.50;99.90;;;;;;5019230;28;20418;-69
2022/09/09 04:45:01;;;;;;;2.27;1.30;;;17.50;99.90;;;;;;5028001;28;20409;-68
2022/09/09 04:47:27;;;;;;;4.97;1.40;;;17.50;99.90;;;;;;5035160;28;20796;-69
2022/09/09 04:49:54;;;;;;;2.60;1.33;;;17.50;99.90;;;;;;5035175;28;20500;-70
2022/09/09 04:52:20;;;;;;;1.87;1.10;;;17.50;99.90;;;;;;5034962;28;20183;-68
2022/09/09 04:54:45;;;;;;;3.50;1.90;;;17.40;99.90;;;;;;5035391;28;20445;-68
2022/09/09 04:57:11;;;;;;;1.93;1.20;;;17.60;99.90;;;;;;5035283;28;20441;-69
2022/09/09 04:59:37;;;;;;;1.83;1.43;;;17.70;99.90;;;;;;5034646;28;20641;-71
2022/09/09 05:02:03;;;;;;;2.00;1.20;;;17.70;99.90;;;;;;5034669;28;20214;-69
2022/09/09 05:04:29;;;;;;;2.40;1.27;;;17.70;99.90;;;;;;5035264;28;20398;-69
2022/09/09 05:06:55;;;;;;;2.93;2.00;;;17.60;99.90;;;;;;5034827;28;20467;-69
2022/09/09 05:09:21;;;;;;;2.70;1.30;;;17.60;99.90;;;;;;5035016;28;20698;-69
2022/09/09 05:11:47;;;;;;;1.60;1.30;;;17.50;99.90;;;;;;5034876;28;20453;-68
2022/09/09 05:14:12;;;;;;;3.67;1.43;;;17.50;99.90;;;;;;5031649;28;20174;-68
2022/09/09 05:16:38;;;;;;;2.83;1.47;;;17.50;99.90;;;;;;5035038;28;20544;-69
2022/09/09 05:19:03;;;;;;;3.10;1.30;;;17.60;99.90;;;;;;5034550;28;20578;-69
2022/09/09 05:21:31;;;;;;;2.43;1.43;;;17.60;99.90;;;;;;5034432;28;20191;-68
2022/09/09 05:23:57;;;;;;;1.83;1.10;;;17.60;99.90;;;;;;5034604;28;20171;-68
2022/09/09 05:26:23;;;;;;;3.17;1.47;;;17.70;99.90;;;;;;5034614;28;20448;-68
2022/09/09 05:28:49;;;;;;;3.43;1.43;;;17.80;99.90;;;;;;5034406;28;20409;-68
2022/09/09 05:31:17;;;;;;;2.00;1.50;;;17.80;99.90;;;;;;5034401;28;20787;-70
2022/09/09 05:33:45;;;;;;;2.13;1.53;;;17.90;99.90;;;;;;5034479;28;20185;-68
2022/09/09 05:36:14;;;;;;;3.30;1.83;;;18.00;99.90;;;;;;5033732;28;20449;-68
2022/09/09 05:38:40;;;;;;;2.80;1.20;;;18.10;99.90;;;;;;5035005;28;20448;-68
2022/09/09 05:41:07;;;;;;;3.43;1.60;;;18.10;99.90;;;;;;5015297;28;20525;-70
2022/09/09 05:43:35;;;;;;;1.50;1.30;;;18.20;99.90;;;;;;5004963;28;20606;-70
2022/09/09 05:46:10;;;;;;;2.60;1.63;;;18.40;99.90;;;;;;5005441;28;20610;-68
2022/09/09 05:48:38;;;;;;;2.00;1.47;;;18.30;99.90;;;;;;5005177;28;20430;-69
2022/09/09 05:51:06;;;;;;;2.90;1.40;;;18.30;99.90;;;;;;5004452;28;20767;-70
2022/09/09 05:53:33;;;;;;;1.53;1.33;;;18.30;99.90;;;;;;5004903;28;20919;-68
2022/09/09 05:56:10;;;;;;;2.10;1.20;;;18.30;99.90;;;;;;5003638;28;20465;-70
2022/09/09 05:58:36;;;;;;;2.13;1.43;;;18.40;99.90;;;;;;5021636;28;20950;-70
2022/09/09 06:01:04;;;;;;;1.63;1.10;;;18.50;99.90;;;;;;5033197;28;20426;-69
2022/09/09 06:03:30;;;;;;;2.17;1.30;;;18.60;99.90;;;;;;5033150;28;20408;-69
2022/09/09 06:06:00;;;;;;;1.67;1.23;;;18.60;99.90;;;;;;5033769;28;20505;-69
2022/09/09 06:08:26;;;;;;;2.37;1.20;;;18.80;99.90;;;;;;5033897;28;20179;-69
2022/09/09 06:10:52;;;;;;;4.90;1.70;;;18.90;99.90;;;;;;5033295;28;20464;-69
2022/09/09 06:13:17;;;;;;;1.20;1.10;;;18.90;99.90;;;;;;5006805;28;20595;-68
2022/09/09 06:15:52;;;;;;;2.30;1.27;;;19.00;99.90;;;;;;5004474;28;20501;-69
2022/09/09 06:18:18;;;;;;;5.93;1.70;;;19.00;99.90;;;;;;5013588;28;20192;-69
2022/09/09 06:20:58;;;;;;;3.83;1.47;;;19.00;99.90;;;;;;5014688;28;20999;-69
2022/09/09 06:23:25;;;;;;;1.63;1.33;;;19.00;99.90;;;;;;5016326;28;20414;-69
2022/09/09 06:25:50;;;;;;;1.37;1.20;;;19.10;99.90;;;;;;5007438;28;20423;-69
2022/09/09 06:28:17;;;;;;;3.23;1.40;;;19.20;99.90;;;;;;5013527;28;20809;-69
2022/09/09 06:30:42;;;;;;;3.40;1.90;;;19.20;99.90;;;;;;5013162;28;20180;-69
2022/09/09 06:33:09;;;;;;;2.20;1.40;;;19.40;99.90;;;;;;5013503;28;20871;-69
2022/09/09 06:35:35;;;;;;;3.27;1.53;;;19.30;99.90;;;;;;5013298;28;20230;-69
2022/09/09 06:38:00;;;;;;;2.13;1.67;;;19.40;99.90;;;;;;5012681;28;20403;-69
2022/09/09 06:40:26;;;;;;;4.43;1.50;;;19.40;99.90;;;;;;5013351;28;20188;-69
2022/09/09 06:42:51;;;;;;;2.30;1.70;;;19.20;99.90;;;;;;5013296;28;20242;-69
2022/09/09 06:45:17;;;;;;;2.57;1.27;;;19.30;99.90;;;;;;5013286;28;20545;-69
2022/09/09 06:47:43;;;;;;;1.63;1.30;;;19.40;99.90;;;;;;5013097;28;20180;-69
2022/09/09 06:50:10;;;;;;;3.57;1.20;;;19.50;99.90;;;;;;5013120;28;20278;-69
2022/09/09 06:52:35;;;;;;;5.57;1.87;;;19.50;99.90;;;;;;5030280;28;20409;-69
2022/09/09 06:55:02;;;;;;;1.67;1.50;;;19.40;99.90;;;;;;5032997;28;20441;-69
2022/09/09 06:57:28;;;;;;;2.20;1.30;;;19.40;99.90;;;;;;5033366;28;20159;-69
2022/09/09 06:59:53;;;;;;;2.80;1.33;;;19.50;99.90;;;;;;5033078;28;20413;-68
2022/09/09 07:02:19;;;;;;;3.20;1.83;;;19.50;99.90;;;;;;5033073;28;20163;-68
2022/09/09 07:04:44;;;;;;;2.93;1.53;;;19.50;99.90;;;;;;5032983;28;20166;-69
2022/09/09 07:07:12;;;;;;;2.00;1.30;;;19.80;99.90;;;;;;5032654;28;20302;-69
2022/09/09 07:09:37;;;;;;;1.53;1.30;;;19.70;99.90;;;;;;5032979;28;20171;-69
2022/09/09 07:12:05;;;;;;;4.43;1.70;;;19.90;99.90;;;;;;5032714;28;20926;-69
2022/09/09 07:14:32;;;;;;;3.60;1.57;;;19.90;99.90;;;;;;5031027;28;20199;-69
2022/09/09 07:16:57;;;;;;;4.60;3.13;;;20.10;99.90;;;;;;5032741;28;20414;-69
2022/09/09 07:19:23;;;;;;;3.03;1.43;;;20.30;99.90;;;;;;5032827;28;20458;-69
2022/09/09 07:21:49;;;;;;;3.50;1.30;;;20.40;99.90;;;;;;5032609;28;20202;-69
2022/09/09 07:24:15;;;;;;;3.13;1.63;;;20.30;99.90;;;;;;5033300;28;20168;-69
2022/09/09 07:26:41;;;;;;;2.77;1.67;;;20.20;99.90;;;;;;5033085;28;20179;-69
2022/09/09 07:29:07;;;;;;;2.87;1.77;;;20.40;99.90;;;;;;5032162;28;20565;-70
2022/09/09 07:31:36;;;;;;;2.10;1.37;;;20.50;99.90;;;;;;5032533;28;20191;-68
2022/09/09 07:34:03;;;;;;;2.13;0.93;;;20.30;99.90;;;;;;5031373;28;20929;-68
2022/09/09 07:36:34;;;;;;;1.23;1.10;;;20.30;99.90;;;;;;5033173;28;20456;-68
2022/09/09 07:39:02;;;;;;;1.87;1.40;;;20.30;99.90;;;;;;5032534;28;20413;-68
2022/09/09 07:41:51;;;;;;;4.83;1.60;;;20.30;99.90;;;;;;5032553;28;20418;-68
2022/09/09 07:44:24;;;;;;;1.73;1.30;;;20.10;99.90;;;;;;5033002;28;20959;-67
2022/09/09 07:46:50;;;;;;;2.87;1.37;;;20.40;99.90;;;;;;5030815;28;20422;-68
2022/09/09 07:49:17;;;;;;;1.97;1.40;;;20.70;99.90;;;;;;5032547;28;20496;-68
2022/09/09 07:51:45;;;;;;;2.70;1.43;;;20.80;99.90;;;;;;5030288;28;20533;-69
2022/09/09 07:54:13;;;;;;;2.67;1.40;;;20.70;99.90;;;;;;5031992;28;20422;-69
2022/09/09 07:56:40;;;;;;;2.47;1.17;;;20.50;99.90;;;;;;5032262;28;20445;-69
2022/09/09 07:59:07;;;;;;;3.70;1.10;;;20.30;99.90;;;;;;5034504;28;20493;-69
2022/09/09 08:01:38;;;;;;;1.77;1.30;;;20.30;99.90;;;;;;5036072;28;20772;-70
2022/09/09 08:04:07;;;;;;;4.53;1.60;;;20.50;99.90;;;;;;5036209;28;20426;-70
2022/09/09 08:06:37;;;;;;;4.63;1.60;;;20.80;99.90;;;;;;5033973;28;20414;-69
2022/09/09 08:09:03;;;;;;;2.63;1.10;;;21.00;99.90;;;;;;5036567;28;20468;-69
2022/09/09 08:11:29;;;;;;;2.70;1.30;;;21.20;99.90;;;;;;5035580;28;20441;-69
2022/09/09 08:13:56;;;;;;;3.23;1.13;;;21.00;99.90;;;;;;5035630;28;20414;-69
2022/09/09 08:16:25;;;;;;;1.90;0.97;;;20.90;99.90;;;;;;5033988;28;20446;-69
2022/09/09 08:18:51;;;;;;;1.87;1.30;;;20.80;99.90;;;;;;5036213;28;20410;-69
2022/09/09 08:21:19;;;;;;;3.03;1.37;;;20.80;99.90;;;;;;5032902;28;20479;-68
2022/09/09 08:23:47;;;;;;;2.70;1.50;;;20.60;99.90;;;;;;5035807;28;20749;-69
2022/09/09 08:26:16;;;;;;;3.47;1.20;;;20.60;99.90;;;;;;5035697;28;20773;-69
2022/09/09 08:28:43;;;;;;;1.93;1.20;;;20.70;99.90;;;;;;5035196;28;20417;-69
2022/09/09 08:31:14;;;;;;;3.30;1.87;;;20.90;99.90;;;;;;5034592;28;20971;-70
2022/09/09 08:33:41;;;;;;;2.20;1.00;;;20.90;99.90;;;;;;5035229;28;20414;-69
2022/09/09 08:36:11;;;;;;;4.40;1.60;;;20.90;99.90;;;;;;5018117;28;20451;-70
2022/09/09 08:38:37;;;;;;;5.13;1.50;;;20.90;99.90;;;;;;5015683;28;20407;-70
2022/09/09 08:41:31;;;;;;;2.13;1.30;;;20.90;99.90;;;;;;5015546;28;20462;-70
2022/09/09 08:44:32;;;;;;;4.30;1.30;;;21.20;99.90;;;;;;5015560;28;20386;-70
2022/09/09 08:47:23;;;;;;;3.70;1.10;;;21.40;99.90;;;;;;5014957;28;20406;-70
2022/09/09 08:50:11;;;;;;;1.73;1.10;;;21.50;99.90;;;;;;5015416;28;20388;-70
2022/09/09 08:52:54;;;;;;;3.80;1.33;;;21.90;99.90;;;;;;5030389;28;20406;-70
2022/09/09 08:55:39;;;;;;;2.47;1.20;;;21.80;99.90;;;;;;5034893;28;20947;-70
2022/09/09 08:58:13;;;;;;;7.10;1.60;;;21.90;99.90;;;;;;5035007;28;20452;-70
2022/09/09 09:01:10;;;;;;;6.33;1.60;;;22.00;99.90;;;;;;5034506;28;20444;-69
2022/09/09 09:04:05;;;;;;;3.30;1.47;;;21.70;99.90;;;;;;5034764;28;20433;-69
2022/09/09 09:06:30;;;;;;;3.73;1.20;;;21.80;99.90;;;;;;5026070;28;20950;-69
2022/09/09 09:09:01;;;;;;;3.57;1.33;;;22.00;99.90;;;;;;5034261;28;20434;-70
2022/09/09 09:11:27;;;;;;;3.10;1.33;;;22.10;99.90;;;;;;5047661;23;20313;-71
2022/09/09 09:14:04;;;;;;;3.47;1.17;;;22.00;99.90;;;;;;5034011;28;20837;-71
2022/09/09 09:16:38;;;;;;;2.40;1.27;;;21.90;99.90;;;;;;5024997;28;20207;-71
2022/09/09 09:19:09;;;;;;;3.87;1.50;;;21.90;99.90;;;;;;5031107;28;20919;-71
2022/09/09 09:21:38;;;;;;;3.00;1.40;;;21.90;99.90;;;;;;5032496;28;20426;-72
2022/09/09 09:24:12;;;;;;;2.43;1.17;;;21.60;99.90;;;;;;5033707;28;20493;-71
2022/09/09 09:26:37;;;;;;;6.93;1.77;;;21.60;99.90;;;;;;5024349;28;20418;-72
2022/09/09 09:29:18;;;;;;;3.57;1.40;;;21.40;99.90;;;;;;5022734;28;20410;-72
2022/09/09 09:31:58;;;;;;;4.30;1.17;;;21.50;99.90;;;;;;5023190;28;20248;-70
2022/09/09 09:34:24;;;;;;;2.73;1.53;;;21.50;99.90;;;;;;5024078;28;20828;-71
2022/09/09 09:36:56;;;;;;;2.00;0.97;;;21.00;99.90;;;;;;5024180;28;20880;-70
2022/09/09 09:39:38;;;;;;;2.47;1.20;;;20.40;99.90;;;;;;5024520;28;20414;-71
2022/09/09 09:42:15;;;;;;;1.67;0.90;;;20.10;99.90;;;;;;5023899;28;20819;-71
2022/09/09 09:44:41;;;;;;;4.77;1.27;;;20.20;99.90;;;;;;5022738;28;20879;-71
2022/09/09 09:47:16;;;;;;;1.87;0.90;;;20.30;99.90;;;;;;5022544;28;20414;-70
2022/09/09 09:49:59;;;;;;;2.80;1.10;;;20.40;99.90;;;;;;5024302;28;20414;-70
2022/09/09 09:52:28;;;;;;;2.03;0.90;;;20.40;99.90;;;;;;5024615;28;20430;-70
2022/09/09 09:54:54;;;;;;;2.03;1.10;;;20.60;99.90;;;;;;5024044;28;20485;-70
2022/09/09 09:57:27;;;;;;;1.10;0.90;;;20.60;99.90;;;;;;5022292;28;20417;-71
2022/09/09 10:00:25;;;;;;;1.97;1.00;;;20.70;99.90;;;;;;5024467;28;20405;-70
2022/09/09 10:02:54;;;;;;;1.47;0.97;;;20.70;99.90;;;;;;4990375;28;20910;-70
2022/09/09 10:05:26;;;;;;;2.43;1.10;;;20.90;99.90;;;;;;5022157;28;20430;-71
2022/09/09 10:08:13;;;;;;;3.57;1.30;;;21.00;99.90;;;;;;5023490;28;20398;-71
2022/09/09 10:10:51;;;;;;;1.73;0.90;;;21.00;99.90;;;;;;5023254;28;20417;-71
2022/09/09 10:13:40;;;;;;;1.97;1.10;;;21.20;99.90;;;;;;5024100;28;20413;-70
2022/09/09 10:16:38;;;;;;;2.30;1.30;;;21.50;99.90;;;;;;5007980;28;20475;-70
2022/09/09 10:19:08;;;;;;;2.80;1.60;;;21.70;99.90;;;;;;5023373;28;20410;-71
2022/09/09 10:21:59;;;;;;;2.50;1.37;;;22.00;99.90;;;;;;5023107;28;20437;-71
2022/09/09 10:25:05;;;;;;;3.37;1.37;;;22.20;99.90;;;;;;5023289;28;20410;-71
2022/09/09 10:27:45;;;;;;;6.07;1.40;;;22.20;99.90;;;;;;5004251;28;20422;-71
2022/09/09 10:30:21;;;;;;;4.37;1.87;;;22.30;99.90;;;;;;5023597;28;20449;-70
2022/09/09 10:32:53;;;;;;;2.40;1.73;;;22.60;99.90;;;;;;5022973;28;20441;-70
2022/09/09 10:35:39;;;;;;;1.70;1.10;;;22.70;99.90;;;;;;5023195;28;20454;-71
2022/09/09 10:38:33;;;;;;;4.43;1.37;;;22.80;99.90;;;;;;5023677;28;20906;-70
2022/09/09 10:41:25;;;;;;;3.17;1.40;;;22.90;99.90;;;;;;5023315;28;20461;-70
2022/09/09 10:44:13;;;;;;;2.67;1.10;;;23.10;99.90;;;;;;5023365;28;20398;-71
2022/09/09 10:46:42;;;;;;;1.73;1.20;;;23.00;99.90;;;;;;5022897;28;20907;-71
2022/09/09 10:49:45;;;;;;;4.57;1.67;;;23.20;99.90;;;;;;5031832;28;20421;-71
2022/09/09 10:52:19;;;;;;;3.90;1.27;;;23.60;99.90;;;;;;5032400;28;20425;-70
2022/09/09 10:54:53;;;;;;;2.37;1.10;;;23.40;99.90;;;;;;5032843;28;20855;-71
2022/09/09 10:57:41;;;;;;;7.40;1.17;;;23.60;99.90;;;;;;5030980;28;20448;-70
2022/09/09 11:00:45;;;;;;;2.40;1.20;;;24.10;99.90;;;;;;5032424;28;20386;-70
2022/09/09 11:03:22;;;;;;;2.97;1.30;;;24.50;99.90;;;;;;5022882;28;20433;-70
2022/09/09 11:05:59;;;;;;;2.53;1.00;;;26.50;98.60;;;;;;5033101;28;20481;-71
2022/09/09 11:08:27;;;;;;;2.00;1.00;;;27.40;97.30;;;;;;5032432;28;20389;-70
2022/09/09 11:11:17;;;;;;;3.33;1.30;;;27.70;97.00;;;;;;5047124;28;20434;-70
2022/09/09 11:13:56;;;;;;;3.80;1.37;;;27.20;97.30;;;;;;5032643;28;20394;-71
2022/09/09 11:16:26;;;;;;;1.73;0.90;;;26.30;96.90;;;;;;5031160;28;20457;-71
2022/09/09 11:18:59;;;;;;;3.90;1.20;;;25.90;98.90;;;;;;5032031;28;20406;-70
2022/09/09 11:21:32;;;;;;;2.70;1.23;;;26.20;96.30;;;;;;5032511;28;20428;-71
2022/09/09 11:24:17;;;;;;;2.30;1.07;;;25.60;97.10;;;;;;5032511;28;20375;-71
2022/09/09 11:27:00;;;;;;;3.27;1.43;;;24.10;96.30;;;;;;5032097;28;20760;-70
2022/09/09 11:29:47;;;;;;;3.07;1.40;;;23.50;96.80;;;;;;5032373;28;20727;-70
2022/09/09 11:32:27;;;;;;;3.10;1.10;;;22.70;96.40;;;;;;5031761;28;20953;-70
2022/09/09 11:35:32;;;;;;;2.10;1.00;;;22.40;96.80;;;;;;5035739;28;20488;-70
2022/09/09 11:38:21;;;;;;;3.03;1.00;;;22.00;97.30;;;;;;5036217;28;20496;-70
2022/09/09 11:40:53;;;;;;;1.90;0.97;;;22.10;97.80;;;;;;5036323;28;20375;-70
2022/09/09 11:43:33;;;;;;;2.77;1.23;;;22.30;98.10;;;;;;5035627;28;20895;-72
2022/09/09 11:46:02;;;;;;;4.20;1.00;;;22.30;98.70;;;;;;5035607;28;20370;-71
2022/09/09 11:48:37;;;;;;;4.10;1.57;;;22.20;98.10;;;;;;5036250;28;20945;-71
2022/09/09 11:51:05;;;;;;;3.50;1.00;;;22.00;98.60;;;;;;5034242;28;20991;-71
2022/09/09 11:53:31;;;;;;;1.50;0.70;;;21.60;98.40;;;;;;5035860;28;20437;-70
2022/09/09 11:56:10;;;;;;;1.47;0.77;;;21.50;99.00;;;;;;5035511;28;20485;-71
2022/09/09 11:58:40;;;;;;;1.47;1.27;;;21.70;99.20;;;;;;5035753;28;20409;-72
2022/09/09 12:01:27;;;;;;;1.80;1.33;;;21.80;99.10;;;;;;5035786;28;20418;-71
2022/09/09 12:04:21;;;;;;;1.57;0.90;;;21.90;99.20;;;;;;5051179;28;20414;-72
2022/09/09 12:06:55;;;;;;;1.53;0.80;;;22.90;97.50;;;;;;5034968;28;20453;-71
2022/09/09 12:09:52;;;;;;;3.07;0.97;;;23.70;96.30;;;;;;5035055;28;20442;-71
2022/09/09 12:12:29;;;;;;;1.57;1.07;;;25.10;94.20;;;;;;5032732;28;20473;-69
2022/09/09 12:15:02;;;;;;;1.60;0.70;;;24.50;94.00;;;;;;5034853;28;20455;-70
2022/09/09 12:17:30;;;;;;;1.00;0.70;;;24.20;94.40;;;;;;5033907;28;20418;-70
2022/09/09 12:20:18;;;;;;;1.27;0.70;;;23.70;94.80;;;;;;5035237;28;20894;-68
2022/09/09 12:23:02;;;;;;;1.33;0.73;;;23.30;95.00;;;;;;5034603;28;20971;-71
2022/09/09 12:25:52;;;;;;;1.17;0.67;;;24.40;95.00;;;;;;5035199;28;20478;-70
2022/09/09 12:28:27;;;;;;;1.20;0.67;;;26.50;91.90;;;;;;5035095;28;20759;-70
2022/09/09 12:31:17;;;;;;;1.47;0.67;;;27.00;89.20;;;;;;5034742;28;20942;-71
2022/09/09 12:33:45;;;;;;;1.60;0.80;;;28.70;84.40;;;;;;5034363;28;20421;-72
2022/09/09 12:36:32;;;;;;;1.00;0.60;;;29.30;78.50;;;;;;5034911;28;20533;-71
2022/09/09 12:39:10;;;;;;;4.10;1.00;;;28.70;75.30;;;;;;5022688;28;20997;-71
2022/09/09 12:41:36;;;;;;;1.37;0.77;;;29.50;76.20;;;;;;5033610;28;20957;-72
2022/09/09 12:44:06;;;;;;;1.30;0.70;;;29.30;69.90;;;;;;5034330;28;20398;-72
2022/09/09 12:46:36;;;;;;;3.37;1.00;;;29.60;70.60;;;;;;5034590;28;20544;-70
2022/09/09 12:49:02;;;;;;;1.37;0.70;;;28.90;71.70;;;;;;5034029;28;20433;-70
2022/09/09 12:51:33;;;;;;;2.70;0.70;;;28.30;74.70;;;;;;5033767;28;20509;-71
2022/09/09 12:53:59;;;;;;;2.50;0.73;;;26.70;76.90;;;;;;5032731;28;20420;-71
2022/09/09 12:56:32;;;;;;;2.00;0.80;;;26.00;80.00;;;;;;5034191;28;21032;-71
2022/09/09 12:58:59;;;;;;;3.43;0.90;;;25.90;81.70;;;;;;5034651;28;20414;-71
2022/09/09 13:01:28;;;;;;;1.50;0.80;;;25.50;85.10;;;;;;5032773;28;20865;-71
2022/09/09 13:03:54;;;;;;;2.60;1.00;;;25.70;86.20;;;;;;5034422;28;20524;-70
2022/09/09 13:06:28;;;;;;;2.60;0.90;;;26.00;83.20;;;;;;5033985;28;20588;-70
2022/09/09 13:08:56;;;;;;;1.77;0.80;;;27.40;80.10;;;;;;5034267;28;20394;-71
2022/09/09 13:11:38;;;;;;;2.07;0.80;;;26.80;80.30;;;;;;5034463;28;20800;-72
2022/09/09 13:14:05;;;;;;;1.37;0.80;;;26.30;81.80;;;;;;5034554;28;20394;-72
2022/09/09 13:16:35;;;;;;;1.20;0.70;;;26.00;81.90;;;;;;5033438;28;21044;-71
2022/09/09 13:19:08;;;;;;;1.60;1.20;;;25.60;82.10;;;;;;5033571;28;20503;-70
2022/09/09 13:21:37;;;;;;;3.00;1.10;;;25.70;84.30;;;;;;5035019;28;20951;-71